Time;durP1;ratioP1;P1;durP2;ratioP2;P2;SDS_P1;SDS_P2;PMS_P1;PMS_P2;Temp;Humidity;BMP_temperature;BMP_pressure;BME280_temperature;BME280_humidity;BME280_pressure;Samples;Min_cycle;Max_cycle;Signal;HPM_P1;HPM_P2
2021/05/01 00:01:19;;;;;;;23.87;15.63;;;7.00;99.90;;;;;;1953481;73;21562;-75
2021/05/01 00:03:51;;;;;;;28.23;15.38;;;7.00;99.90;;;;;;1953631;73;21074;-73
2021/05/01 00:06:17;;;;;;;25.43;15.83;;;7.00;99.90;;;;;;1953784;73;21109;-73
2021/05/01 00:08:43;;;;;;;30.32;15.00;;;7.00;99.90;;;;;;1954530;73;21074;-74
2021/05/01 00:11:09;;;;;;;25.90;14.78;;;7.00;99.90;;;;;;1954284;73;21143;-74
2021/05/01 00:13:42;;;;;;;20.57;14.68;;;7.00;99.90;;;;;;1953620;73;21148;-73
2021/05/01 00:16:03;;;;;;;23.90;14.85;;;7.00;99.90;;;;;;1951088;72;21493;-75
2021/05/01 00:18:29;;;;;;;26.00;16.07;;;7.00;99.90;;;;;;1953490;73;21046;-73
2021/05/01 00:20:55;;;;;;;21.93;14.33;;;7.00;99.90;;;;;;1953538;73;21062;-73
2021/05/01 00:23:21;;;;;;;23.92;15.45;;;7.00;99.90;;;;;;1953477;72;21031;-74
2021/05/01 00:25:50;;;;;;;30.90;15.68;;;7.00;99.90;;;;;;1953537;73;21039;-73
2021/05/01 00:28:17;;;;;;;25.05;13.98;;;7.10;99.90;;;;;;1953527;73;21124;-73
2021/05/01 00:30:43;;;;;;;23.02;14.43;;;7.20;99.90;;;;;;1953646;73;21243;-73
2021/05/01 00:33:16;;;;;;;28.02;15.08;;;7.20;99.90;;;;;;1953571;73;21066;-74
2021/05/01 00:35:37;;;;;;;28.98;16.95;;;7.10;99.90;;;;;;1951032;73;21088;-74
2021/05/01 00:38:03;;;;;;;24.87;15.85;;;7.20;99.90;;;;;;1953429;72;21076;-73
2021/05/01 00:40:29;;;;;;;27.20;16.25;;;7.20;99.90;;;;;;1953467;73;21132;-73
2021/05/01 00:42:55;;;;;;;29.77;15.95;;;7.30;99.90;;;;;;1953586;73;21062;-73
2021/05/01 00:45:22;;;;;;;28.38;15.15;;;7.30;99.90;;;;;;1953598;73;21517;-73
2021/05/01 00:47:48;;;;;;;30.25;16.93;;;7.20;99.90;;;;;;1926463;73;21095;-73
2021/05/01 00:50:14;;;;;;;26.27;15.40;;;7.20;99.90;;;;;;1953592;73;21120;-74
2021/05/01 00:52:40;;;;;;;31.02;17.32;;;7.20;99.90;;;;;;1953396;73;21128;-73
2021/05/01 00:55:06;;;;;;;28.83;16.52;;;7.10;99.90;;;;;;1953604;73;21062;-73
2021/05/01 00:57:32;;;;;;;26.62;15.00;;;7.10;99.90;;;;;;1953493;73;21070;-73
2021/05/01 00:59:58;;;;;;;25.27;15.45;;;7.20;99.90;;;;;;1953404;73;21062;-73
2021/05/01 01:02:31;;;;;;;21.70;14.98;;;7.20;99.90;;;;;;1953566;73;21144;-73
2021/05/01 01:05:00;;;;;;;26.00;16.87;;;7.20;99.90;;;;;;1953510;73;21070;-73
2021/05/01 01:07:29;;;;;;;26.62;15.80;;;7.30;99.90;;;;;;1953455;73;21078;-73
2021/05/01 01:09:55;;;;;;;29.30;16.00;;;7.20;99.90;;;;;;1953790;73;21035;-73
2021/05/01 01:12:21;;;;;;;25.17;16.02;;;7.30;99.90;;;;;;1953709;73;21043;-73
2021/05/01 01:14:50;;;;;;;25.25;15.98;;;7.30;99.90;;;;;;1953524;73;21121;-73
2021/05/01 01:17:16;;;;;;;29.07;16.65;;;7.20;99.90;;;;;;1953398;73;21066;-74
2021/05/01 01:19:42;;;;;;;31.20;17.20;;;7.30;99.90;;;;;;1953523;73;21125;-73
2021/05/01 01:22:09;;;;;;;25.25;16.07;;;7.30;99.90;;;;;;1953591;73;21066;-74
2021/05/01 01:24:42;;;;;;;31.02;17.52;;;7.30;99.90;;;;;;1953495;73;21067;-74
2021/05/01 01:27:03;;;;;;;28.77;16.90;;;7.20;99.90;;;;;;1950704;72;21109;-72
2021/05/01 01:29:29;;;;;;;24.57;15.20;;;7.20;99.90;;;;;;1953550;73;21066;-73
2021/05/01 01:31:57;;;;;;;28.52;16.77;;;7.30;99.90;;;;;;1953609;73;21067;-74
2021/05/01 01:34:23;;;;;;;25.77;16.00;;;7.30;99.90;;;;;;1953086;73;21579;-73
2021/05/01 01:36:52;;;;;;;27.55;16.80;;;7.30;99.90;;;;;;1953363;73;21494;-74
2021/05/01 01:39:20;;;;;;;29.87;16.17;;;7.40;99.90;;;;;;1953331;73;21152;-72
2021/05/01 01:41:49;;;;;;;30.75;16.85;;;7.40;99.90;;;;;;1953477;73;21070;-74
2021/05/01 01:44:17;;;;;;;28.57;16.55;;;7.40;99.90;;;;;;1953188;73;21091;-74
2021/05/01 01:46:45;;;;;;;31.57;17.82;;;7.50;99.90;;;;;;1952893;73;21135;-73
2021/05/01 01:49:11;;;;;;;24.63;16.05;;;7.40;99.90;;;;;;1953383;73;21059;-74
2021/05/01 01:51:42;;;;;;;27.40;17.07;;;7.40;99.90;;;;;;1953616;73;21067;-73
2021/05/01 01:54:07;;;;;;;;;;;7.40;99.90;;;;;;1956448;72;21386;-74
2021/05/01 01:56:33;;;;;;;24.00;15.23;;;7.40;99.90;;;;;;1953388;73;20354;-74
2021/05/01 01:59:00;;;;;;;23.70;15.53;;;7.40;99.90;;;;;;1953316;73;21566;-74
2021/05/01 02:01:26;;;;;;;26.30;16.10;;;7.50;99.90;;;;;;1953457;73;21578;-74
2021/05/01 02:03:52;;;;;;;27.07;16.52;;;7.60;99.90;;;;;;1953472;73;21118;-74
2021/05/01 02:06:20;;;;;;;30.27;17.05;;;7.50;99.90;;;;;;1953543;73;21070;-74
2021/05/01 02:08:46;;;;;;;33.73;17.92;;;7.50;99.90;;;;;;1953241;73;21083;-74
2021/05/01 02:11:12;;;;;;;31.15;16.27;;;7.50;99.90;;;;;;1953681;73;21121;-74
2021/05/01 02:13:46;;;;;;;28.45;17.48;;;7.40;99.90;;;;;;1953411;73;21462;-73
2021/05/01 02:16:06;;;;;;;28.73;17.12;;;7.40;99.90;;;;;;1951958;72;21080;-74
2021/05/01 02:18:32;;;;;;;28.07;16.62;;;7.30;99.90;;;;;;1953487;73;21522;-73
2021/05/01 02:20:59;;;;;;;29.12;17.12;;;7.30;99.90;;;;;;1953662;73;21434;-74
2021/05/01 02:23:28;;;;;;;29.85;16.60;;;7.20;99.90;;;;;;1953483;73;21062;-74
2021/05/01 02:26:01;;;;;;;30.37;17.05;;;7.20;99.90;;;;;;1953443;73;21050;-74
2021/05/01 02:28:22;;;;;;;31.12;16.95;;;7.20;99.90;;;;;;1950724;72;21534;-74
2021/05/01 02:30:48;;;;;;;31.40;17.62;;;7.30;99.90;;;;;;1953414;73;21489;-73
2021/05/01 02:33:14;;;;;;;28.42;16.87;;;7.30;99.90;;;;;;1953559;73;21055;-73
2021/05/01 02:35:41;;;;;;;36.25;17.23;;;7.30;99.90;;;;;;1953543;73;21066;-73
2021/05/01 02:38:07;;;;;;;27.00;16.52;;;7.40;99.90;;;;;;1953307;73;21112;-74
2021/05/01 02:40:33;;;;;;;26.82;16.45;;;7.40;99.90;;;;;;1953565;73;21066;-74
2021/05/01 02:43:02;;;;;;;29.23;16.75;;;7.40;99.90;;;;;;1953336;73;21019;-73
2021/05/01 02:45:31;;;;;;;29.20;16.15;;;7.20;99.90;;;;;;1953423;73;21148;-74
2021/05/01 02:47:57;;;;;;;31.62;16.48;;;7.30;99.90;;;;;;1953367;73;21494;-74
2021/05/01 02:50:37;;;;;;;33.08;18.02;;;7.20;99.90;;;;;;1953529;73;21046;-74
2021/05/01 02:52:51;;;;;;;31.85;17.32;;;7.10;99.90;;;;;;1947836;72;21072;-73
2021/05/01 02:55:17;;;;;;;25.80;16.45;;;7.10;99.90;;;;;;1953541;73;21060;-73
2021/05/01 02:57:43;;;;;;;29.65;17.73;;;7.10;99.90;;;;;;1953441;73;20995;-73
2021/05/01 03:00:12;;;;;;;30.27;17.48;;;7.10;99.90;;;;;;1953394;73;21058;-73
2021/05/01 03:02:38;;;;;;;33.02;18.85;;;7.10;99.90;;;;;;1953533;73;21066;-73
2021/05/01 03:05:07;;;;;;;31.07;17.85;;;7.10;99.90;;;;;;1953457;73;21067;-73
2021/05/01 03:07:32;;;;;;;40.15;17.65;;;7.10;99.90;;;;;;1953129;72;21138;-73
2021/05/01 03:09:58;;;;;;;38.45;19.02;;;7.20;99.90;;;;;;1953437;73;21054;-73
2021/05/01 03:12:25;;;;;;;35.43;19.07;;;7.10;99.90;;;;;;1953411;73;21485;-73
2021/05/01 03:14:51;;;;;;;25.57;16.27;;;7.20;99.90;;;;;;1953486;73;21094;-73
2021/05/01 03:17:17;;;;;;;35.70;18.52;;;7.20;99.90;;;;;;1953509;73;21132;-74
2021/05/01 03:19:43;;;;;;;26.90;17.32;;;7.20;99.90;;;;;;1953321;73;21513;-74
2021/05/01 03:22:09;;;;;;;35.15;18.85;;;7.30;99.90;;;;;;1953168;73;21199;-74
2021/05/01 03:24:37;;;;;;;28.52;17.95;;;7.30;99.90;;;;;;1953412;73;21058;-74
2021/05/01 03:27:12;;;;;;;30.55;18.20;;;7.10;99.90;;;;;;1949357;73;21859;-74
2021/05/01 03:29:44;;;;;;;30.00;18.25;;;7.20;99.90;;;;;;1946026;73;21062;-74
2021/05/01 03:32:09;;;;;;;;;;;7.20;99.90;;;;;;1955773;72;21076;-73
2021/05/01 03:34:40;;;;;;;26.77;15.32;;;7.20;99.90;;;;;;1953289;73;20124;-73
2021/05/01 03:37:04;;;;;;;32.17;16.62;;;7.20;99.90;;;;;;1952561;73;21070;-74
2021/05/01 03:39:30;;;;;;;28.70;18.00;;;7.30;99.90;;;;;;1953455;73;21039;-73
2021/05/01 03:41:56;;;;;;;29.95;17.05;;;7.40;99.90;;;;;;1945054;72;21058;-74
2021/05/01 03:44:22;;;;;;;27.62;15.70;;;7.30;99.90;;;;;;1947409;73;21130;-74
2021/05/01 03:46:49;;;;;;;33.70;17.80;;;7.30;99.90;;;;;;1951407;73;21135;-74
2021/05/01 03:49:15;;;;;;;30.57;19.05;;;7.30;99.90;;;;;;1949345;73;21505;-73
2021/05/01 03:51:44;;;;;;;36.17;18.73;;;7.20;99.90;;;;;;1953510;73;21067;-73
2021/05/01 03:54:10;;;;;;;29.75;18.10;;;7.20;99.90;;;;;;1947082;72;21066;-74
2021/05/01 03:56:42;;;;;;;30.82;18.07;;;7.20;99.90;;;;;;1953279;73;21070;-73
2021/05/01 03:59:11;;;;;;;38.85;18.90;;;7.30;99.90;;;;;;1953283;73;21066;-74
2021/05/01 04:01:37;;;;;;;31.62;17.23;;;7.40;99.90;;;;;;1953410;73;21136;-74
2021/05/01 04:04:09;;;;;;;33.83;16.87;;;7.40;99.90;;;;;;1953135;73;21509;-73
2021/05/01 04:06:34;;;;;;;;;;;7.40;99.90;;;;;;1955940;72;21094;-74
2021/05/01 04:09:01;;;;;;;29.70;17.02;;;7.30;99.90;;;;;;1953272;73;20147;-74
2021/05/01 04:11:27;;;;;;;33.45;17.90;;;7.30;99.90;;;;;;1953258;73;21502;-74
2021/05/01 04:13:53;;;;;;;27.50;17.95;;;7.20;99.90;;;;;;1953452;73;21078;-73
2021/05/01 04:16:19;;;;;;;32.53;18.48;;;7.20;99.90;;;;;;1953360;73;21125;-73
2021/05/01 04:18:45;;;;;;;30.05;18.82;;;7.10;99.90;;;;;;1953339;73;21136;-73
2021/05/01 04:21:15;;;;;;;34.25;20.05;;;7.10;99.90;;;;;;1953492;73;21066;-73
2021/05/01 04:23:39;;;;;;;33.83;19.05;;;7.10;99.90;;;;;;1952592;73;21091;-72
2021/05/01 04:26:06;;;;;;;35.85;20.35;;;7.20;99.90;;;;;;1953378;73;21031;-73
2021/05/01 04:28:32;;;;;;;35.00;18.73;;;7.20;99.90;;;;;;1953386;73;21066;-73
2021/05/01 04:30:58;;;;;;;31.50;19.23;;;7.30;99.90;;;;;;1953417;73;21042;-73
2021/05/01 04:33:25;;;;;;;32.40;20.17;;;7.30;99.90;;;;;;1953520;73;21143;-75
2021/05/01 04:35:56;;;;;;;36.53;19.77;;;7.30;99.90;;;;;;1953480;73;21062;-74
2021/05/01 04:38:19;;;;;;;46.00;17.70;;;7.30;99.90;;;;;;1951950;72;21503;-73
2021/05/01 04:40:51;;;;;;;31.48;17.95;;;7.40;99.90;;;;;;1953256;73;21071;-73
2021/05/01 04:43:21;;;;;;;32.75;18.95;;;7.40;99.90;;;;;;1953403;73;21494;-73
2021/05/01 04:45:45;;;;;;;31.82;19.17;;;7.50;99.90;;;;;;1953129;72;21107;-73
2021/05/01 04:48:14;;;;;;;34.27;19.27;;;7.50;99.90;;;;;;1953439;73;21070;-73
2021/05/01 04:50:43;;;;;;;29.70;18.17;;;7.60;99.90;;;;;;1953547;73;21070;-73
2021/05/01 04:53:09;;;;;;;32.53;17.50;;;7.70;99.90;;;;;;1953454;73;21132;-75
2021/05/01 04:55:35;;;;;;;31.82;18.55;;;7.70;99.90;;;;;;1953531;73;21070;-73
2021/05/01 04:58:01;;;;;;;31.15;18.27;;;7.70;99.90;;;;;;1953388;73;21066;-74
2021/05/01 05:00:27;;;;;;;29.85;18.15;;;7.80;99.90;;;;;;1953411;73;21039;-74
2021/05/01 05:02:54;;;;;;;29.65;18.02;;;7.80;99.90;;;;;;1953459;73;21144;-74
2021/05/01 05:05:20;;;;;;;29.70;17.92;;;8.00;99.90;;;;;;1953340;73;21066;-73
2021/05/01 05:07:54;;;;;;;31.02;18.07;;;8.00;99.90;;;;;;1953593;73;21059;-74
2021/05/01 05:10:14;;;;;;;30.80;18.50;;;7.80;99.90;;;;;;1950905;73;21080;-72
2021/05/01 05:12:43;;;;;;;32.58;18.73;;;7.70;99.90;;;;;;1953505;73;20996;-74
2021/05/01 05:15:08;;;;;;;28.95;16.90;;;7.70;99.90;;;;;;1952731;72;21544;-73
2021/05/01 05:17:37;;;;;;;30.82;16.90;;;7.80;99.90;;;;;;1953577;73;21563;-73
2021/05/01 05:20:03;;;;;;;32.00;18.95;;;7.80;99.90;;;;;;1953435;73;21121;-72
2021/05/01 05:22:29;;;;;;;30.85;17.12;;;7.70;99.90;;;;;;1953599;73;21058;-74
2021/05/01 05:24:55;;;;;;;36.83;18.90;;;7.60;99.90;;;;;;1953562;73;21128;-73
2021/05/01 05:27:22;;;;;;;34.67;19.67;;;7.80;99.90;;;;;;1953490;73;21049;-73
2021/05/01 05:29:51;;;;;;;33.42;17.67;;;7.60;99.90;;;;;;1953548;73;21054;-73
2021/05/01 05:32:17;;;;;;;31.55;17.90;;;7.70;99.90;;;;;;1953637;73;21062;-72
2021/05/01 05:34:43;;;;;;;32.58;17.15;;;7.70;99.90;;;;;;1953466;73;21641;-73
2021/05/01 05:37:10;;;;;;;29.70;16.48;;;7.80;99.90;;;;;;1953488;73;21023;-73
2021/05/01 05:39:36;;;;;;;29.32;17.35;;;8.00;99.90;;;;;;1953451;73;21023;-73
2021/05/01 05:42:05;;;;;;;31.07;16.65;;;8.10;99.90;;;;;;1953426;73;21608;-73
2021/05/01 05:44:30;;;;;;;30.25;17.05;;;8.30;99.90;;;;;;1952984;73;21087;-73
2021/05/01 05:46:57;;;;;;;27.52;16.02;;;8.50;99.90;;;;;;1949073;72;21062;-73
2021/05/01 05:49:23;;;;;;;27.75;15.15;;;8.60;99.90;;;;;;1953425;73;21645;-74
2021/05/01 05:51:49;;;;;;;23.18;14.93;;;8.70;99.90;;;;;;1953562;73;21547;-73
2021/05/01 05:54:15;;;;;;;29.37;14.90;;;8.80;99.90;;;;;;1953301;73;21549;-72
2021/05/01 05:56:41;;;;;;;30.05;14.95;;;8.70;99.90;;;;;;1953559;73;21474;-74
2021/05/01 05:59:07;;;;;;;25.43;14.28;;;8.70;99.90;;;;;;1941954;72;21514;-73
2021/05/01 06:01:33;;;;;;;28.12;14.30;;;8.90;99.90;;;;;;1953531;73;21113;-74
2021/05/01 06:03:59;;;;;;;28.57;14.55;;;8.80;99.90;;;;;;1953378;72;21066;-75
2021/05/01 06:06:26;;;;;;;26.60;14.38;;;8.90;99.90;;;;;;1953579;73;21039;-74
2021/05/01 06:08:52;;;;;;;23.10;13.25;;;9.00;99.90;;;;;;1953688;73;21059;-74
2021/05/01 06:11:18;;;;;;;21.55;13.13;;;9.00;99.90;;;;;;1953636;73;21130;-74
2021/05/01 06:13:49;;;;;;;19.48;12.40;;;9.10;99.90;;;;;;1953354;73;21571;-74
2021/05/01 06:16:15;;;;;;;25.15;14.25;;;9.20;99.90;;;;;;1952195;73;21099;-74
2021/05/01 06:18:40;;;;;;;21.05;11.97;;;9.10;99.90;;;;;;1952761;72;21103;-74
2021/05/01 06:21:06;;;;;;;25.08;13.03;;;8.90;99.90;;;;;;1953314;73;21058;-74
2021/05/01 06:23:32;;;;;;;19.95;11.43;;;8.80;99.90;;;;;;1953415;73;21420;-74
2021/05/01 06:25:58;;;;;;;22.45;11.88;;;8.90;99.90;;;;;;1953296;73;21084;-74
2021/05/01 06:28:25;;;;;;;16.40;9.78;;;9.20;99.90;;;;;;1953403;73;21027;-74
2021/05/01 06:30:51;;;;;;;17.73;10.13;;;9.00;99.90;;;;;;1953522;73;21121;-73
2021/05/01 06:33:17;;;;;;;19.32;10.70;;;9.30;99.90;;;;;;1953317;73;21132;-74
2021/05/01 06:35:44;;;;;;;14.40;8.58;;;9.30;99.90;;;;;;1953506;73;21109;-74
2021/05/01 06:38:10;;;;;;;19.77;9.23;;;9.10;99.90;;;;;;1953438;73;21062;-74
2021/05/01 06:40:44;;;;;;;13.85;7.80;;;9.20;99.90;;;;;;1953471;73;21028;-75
2021/05/01 06:43:11;;;;;;;12.47;7.83;;;9.20;99.90;;;;;;1953268;72;21149;-74
2021/05/01 06:45:37;;;;;;;12.23;7.08;;;9.10;99.90;;;;;;1953332;73;21031;-74
2021/05/01 06:48:03;;;;;;;13.28;7.90;;;9.20;99.90;;;;;;1953518;73;21105;-74
2021/05/01 06:50:29;;;;;;;12.53;7.40;;;9.50;99.90;;;;;;1953328;73;21131;-74
2021/05/01 06:52:57;;;;;;;13.18;7.50;;;9.60;99.90;;;;;;1953401;73;21054;-74
2021/05/01 06:55:23;;;;;;;10.95;7.03;;;9.40;99.90;;;;;;1953417;73;21167;-74
2021/05/01 06:57:49;;;;;;;12.88;7.00;;;9.40;99.90;;;;;;1953492;73;21031;-74
2021/05/01 07:00:15;;;;;;;13.28;7.03;;;9.50;99.90;;;;;;1953248;73;21161;-75
2021/05/01 07:02:42;;;;;;;13.32;7.78;;;9.70;99.90;;;;;;1953482;73;21063;-76
2021/05/01 07:05:08;;;;;;;11.18;7.03;;;9.60;99.90;;;;;;1953191;73;21132;-76
2021/05/01 07:07:36;;;;;;;12.98;7.85;;;9.30;99.90;;;;;;1953483;73;21074;-74
2021/05/01 07:10:02;;;;;;;12.63;7.72;;;9.50;99.90;;;;;;1953215;73;21075;-78
2021/05/01 07:12:28;;;;;;;11.25;7.12;;;9.80;99.90;;;;;;1953416;73;21062;-73
2021/05/01 07:14:54;;;;;;;10.53;6.95;;;9.80;99.90;;;;;;1952016;73;21075;-76
2021/05/01 07:17:21;;;;;;;13.38;7.42;;;9.60;99.90;;;;;;1951636;73;21531;-73
2021/05/01 07:22:32;;;;;;;15.40;8.45;;;9.60;99.90;;;;;;1951793;73;21061;-74
2021/05/01 07:24:59;;;;;;;14.85;8.25;;;9.70;99.90;;;;;;1925637;73;21128;-74
2021/05/01 07:27:25;;;;;;;18.85;9.48;;;9.80;99.90;;;;;;1951721;73;21063;-74
2021/05/01 07:29:51;;;;;;;16.80;9.20;;;9.70;99.90;;;;;;1951724;73;21071;-74
2021/05/01 07:32:17;;;;;;;17.25;9.83;;;9.80;99.90;;;;;;1951855;73;21035;-75
2021/05/01 07:34:49;;;;;;;18.40;10.08;;;10.00;99.90;;;;;;1951806;73;21110;-75
2021/05/01 07:37:12;;;;;;;16.77;9.10;;;10.00;99.90;;;;;;1951286;73;21083;-75
2021/05/01 07:39:38;;;;;;;19.45;9.85;;;9.80;99.90;;;;;;1951707;73;21110;-78
2021/05/01 07:42:04;;;;;;;16.05;9.78;;;9.70;99.90;;;;;;1951756;73;21099;-75
2021/05/01 07:44:31;;;;;;;16.27;9.90;;;9.80;99.90;;;;;;1951743;73;21087;-77
2021/05/01 07:46:57;;;;;;;18.77;10.25;;;9.90;99.90;;;;;;1951688;73;21093;-78
2021/05/01 07:49:24;;;;;;;18.73;9.93;;;9.90;99.90;;;;;;1951678;73;21235;-76
2021/05/01 07:51:51;;;;;;;20.12;9.93;;;9.70;99.90;;;;;;1951794;73;21078;-76
2021/05/01 07:54:17;;;;;;;14.75;8.78;;;9.50;99.90;;;;;;1951920;73;21067;-78
2021/05/01 07:56:43;;;;;;;18.98;9.33;;;9.60;99.90;;;;;;1951882;73;21112;-78
2021/05/01 07:59:10;;;;;;;20.60;9.30;;;9.60;99.90;;;;;;1951801;73;21428;-77
2021/05/01 08:01:36;;;;;;;18.05;9.43;;;9.60;99.90;;;;;;1951524;73;21086;-78
2021/05/01 08:04:02;;;;;;;15.98;9.93;;;9.30;99.90;;;;;;1951691;73;21161;-77
2021/05/01 08:06:29;;;;;;;14.73;9.63;;;9.50;99.90;;;;;;1951706;73;21087;-77
2021/05/01 08:08:55;;;;;;;19.45;10.38;;;9.50;99.90;;;;;;1951797;73;21082;-78
2021/05/01 08:11:21;;;;;;;16.82;9.53;;;9.70;99.90;;;;;;1951594;73;21092;-77
2021/05/01 08:13:47;;;;;;;17.82;10.25;;;9.60;99.90;;;;;;1951758;73;21129;-78
2021/05/01 08:16:13;;;;;;;19.55;11.28;;;9.50;99.90;;;;;;1951586;73;21143;-77
2021/05/01 08:18:39;;;;;;;19.07;10.18;;;9.50;99.90;;;;;;1951883;73;21043;-76
2021/05/01 08:21:05;;;;;;;15.80;10.70;;;9.70;99.90;;;;;;1951764;73;21120;-77
2021/05/01 08:23:33;;;;;;;20.72;10.82;;;9.90;99.90;;;;;;1943443;73;21502;-78
2021/05/01 08:25:59;;;;;;;18.98;10.35;;;9.80;99.90;;;;;;1951813;73;21078;-77
2021/05/01 08:28:25;;;;;;;17.55;10.50;;;9.70;99.90;;;;;;1925285;73;21133;-77
2021/05/01 08:30:51;;;;;;;16.15;9.13;;;9.80;99.90;;;;;;1951810;73;21031;-77
2021/05/01 08:33:19;;;;;;;16.02;9.05;;;9.80;99.90;;;;;;1951873;73;21067;-75
2021/05/01 08:35:45;;;;;;;13.98;8.68;;;10.00;99.90;;;;;;1951653;72;21166;-76
2021/05/01 08:38:11;;;;;;;17.95;9.48;;;10.10;99.90;;;;;;1951745;73;21066;-75
2021/05/01 08:40:37;;;;;;;19.75;10.88;;;10.20;99.90;;;;;;1951715;73;21116;-76
2021/05/01 08:43:04;;;;;;;17.60;11.10;;;10.20;99.90;;;;;;1951595;73;21134;-75
2021/05/01 08:45:32;;;;;;;16.90;10.58;;;10.40;99.90;;;;;;1951834;73;21136;-75
2021/05/01 08:47:58;;;;;;;16.30;10.40;;;10.50;99.90;;;;;;1951666;73;21067;-76
2021/05/01 08:50:24;;;;;;;17.00;9.63;;;10.60;99.90;;;;;;1951781;73;21179;-76
2021/05/01 08:52:52;;;;;;;15.25;9.55;;;10.40;99.90;;;;;;1951740;73;21059;-77
2021/05/01 08:55:18;;;;;;;16.75;9.18;;;10.30;99.90;;;;;;1951616;72;21095;-77
2021/05/01 08:57:44;;;;;;;17.02;9.73;;;10.30;99.90;;;;;;1951887;73;21075;-76
2021/05/01 09:00:11;;;;;;;19.57;10.15;;;10.40;99.90;;;;;;1951726;73;21070;-76
2021/05/01 09:02:38;;;;;;;22.07;11.20;;;10.60;99.90;;;;;;1951884;73;21039;-77
2021/05/01 09:05:04;;;;;;;16.00;9.13;;;10.50;99.90;;;;;;1951896;73;21106;-77
2021/05/01 09:07:30;;;;;;;18.67;10.70;;;10.40;99.90;;;;;;1951877;73;21132;-77
2021/05/01 09:09:56;;;;;;;19.02;10.23;;;10.60;99.90;;;;;;1951778;73;21066;-77
2021/05/01 09:12:22;;;;;;;17.65;9.95;;;10.70;99.90;;;;;;1951769;73;21062;-77
2021/05/01 09:14:48;;;;;;;21.85;10.48;;;10.80;99.90;;;;;;1951879;73;21140;-77
2021/05/01 09:17:14;;;;;;;19.75;10.58;;;11.00;99.90;;;;;;1951587;73;21127;-77
2021/05/01 09:19:42;;;;;;;23.67;10.08;;;11.00;99.90;;;;;;1951894;73;21063;-77
2021/05/01 09:22:08;;;;;;;21.42;10.10;;;10.80;99.90;;;;;;1951911;73;21479;-76
2021/05/01 09:24:34;;;;;;;20.90;10.18;;;10.90;99.90;;;;;;1951915;73;21516;-76
2021/05/01 09:27:02;;;;;;;20.25;10.13;;;10.90;99.90;;;;;;1951870;73;21039;-76
2021/05/01 09:29:28;;;;;;;18.50;10.88;;;10.80;99.90;;;;;;1951786;73;21142;-76
2021/05/01 09:31:54;;;;;;;19.00;11.03;;;10.60;99.90;;;;;;1951773;73;21593;-76
2021/05/01 09:34:21;;;;;;;17.77;9.83;;;10.70;99.90;;;;;;1951942;73;21419;-76
2021/05/01 09:36:48;;;;;;;17.07;10.68;;;10.60;99.90;;;;;;1951957;73;21088;-75
2021/05/01 09:39:16;;;;;;;18.12;10.60;;;10.70;99.90;;;;;;1951880;73;21109;-77
2021/05/01 09:41:43;;;;;;;15.50;10.08;;;10.90;99.90;;;;;;1951975;73;21063;-76
2021/05/01 09:44:09;;;;;;;17.75;9.95;;;11.00;99.90;;;;;;1951730;73;21124;-76
2021/05/01 09:46:35;;;;;;;17.70;9.10;;;11.20;99.90;;;;;;1951913;73;21063;-76
2021/05/01 09:49:01;;;;;;;21.95;10.23;;;11.00;99.90;;;;;;1951744;73;21059;-77
2021/05/01 09:51:27;;;;;;;18.52;10.50;;;11.00;99.90;;;;;;1951716;73;21066;-76
2021/05/01 09:53:53;;;;;;;16.02;10.08;;;11.00;99.90;;;;;;1951718;73;21090;-77
2021/05/01 09:56:19;;;;;;;17.55;9.50;;;11.30;99.90;;;;;;1951710;73;21027;-76
2021/05/01 09:58:46;;;;;;;17.90;10.40;;;11.20;99.90;;;;;;1951659;73;21063;-77
2021/05/01 10:01:13;;;;;;;17.57;9.40;;;11.20;99.90;;;;;;1951818;73;21067;-76
2021/05/01 10:03:41;;;;;;;17.73;9.60;;;11.40;99.90;;;;;;1951728;73;21553;-77
2021/05/01 10:06:07;;;;;;;17.87;9.75;;;11.40;99.90;;;;;;1951647;72;21096;-77
2021/05/01 10:08:33;;;;;;;18.65;10.00;;;11.60;99.90;;;;;;1951848;73;21546;-76
2021/05/01 10:10:59;;;;;;;16.60;8.90;;;11.50;99.90;;;;;;1951638;73;21447;-76
2021/05/01 10:13:25;;;;;;;14.65;9.03;;;11.40;99.90;;;;;;1951711;73;21542;-76
2021/05/01 10:15:52;;;;;;;20.90;9.83;;;11.30;99.90;;;;;;1953835;73;21080;-77
2021/05/01 10:18:19;;;;;;;14.85;9.68;;;11.40;99.90;;;;;;1953492;73;21184;-78
2021/05/01 10:20:46;;;;;;;17.80;9.93;;;11.50;99.90;;;;;;1952064;73;21040;-76
2021/05/01 10:23:14;;;;;;;18.67;9.73;;;11.90;99.90;;;;;;1951667;73;21132;-76
2021/05/01 10:25:40;;;;;;;23.45;9.98;;;11.80;99.90;;;;;;1925693;73;21509;-77
2021/05/01 10:28:08;;;;;;;20.40;9.63;;;11.70;99.90;;;;;;1951686;73;21534;-76
2021/05/01 10:30:36;;;;;;;18.57;10.00;;;11.90;99.90;;;;;;1951690;73;21259;-76
2021/05/01 10:33:48;;;;;;;19.60;10.75;;;11.90;99.90;;;;;;1945194;73;21107;-77
2021/05/01 10:35:30;;;;;;;17.55;9.58;;;11.90;99.90;;;;;;1921430;73;21062;-76
2021/05/01 10:37:56;;;;;;;19.80;10.03;;;11.80;99.90;;;;;;1938543;72;21204;-77
2021/05/01 10:40:22;;;;;;;20.55;10.50;;;11.30;99.90;;;;;;1951641;73;21137;-76
2021/05/01 10:42:48;;;;;;;19.27;10.80;;;11.20;99.90;;;;;;1951849;73;21070;-75
2021/05/01 10:45:14;;;;;;;19.05;9.80;;;11.50;99.90;;;;;;1951964;73;21184;-75
2021/05/01 10:47:41;;;;;;;18.35;10.25;;;11.60;99.90;;;;;;1951895;73;21035;-75
2021/05/01 10:50:08;;;;;;;16.87;9.85;;;11.70;99.90;;;;;;1951977;73;21136;-75
2021/05/01 10:52:34;;;;;;;19.20;10.50;;;11.40;99.90;;;;;;1951731;73;21146;-75
2021/05/01 10:55:00;;;;;;;17.25;8.83;;;11.30;99.90;;;;;;1951762;73;21124;-76
2021/05/01 10:57:26;;;;;;;17.32;9.38;;;11.60;99.90;;;;;;1952078;73;21529;-76
2021/05/01 10:59:52;;;;;;;17.48;9.68;;;11.50;99.90;;;;;;1951844;73;21455;-77
2021/05/01 11:02:18;;;;;;;16.85;10.18;;;11.60;99.90;;;;;;1951714;73;21545;-77
2021/05/01 11:04:44;;;;;;;19.90;10.38;;;11.40;99.90;;;;;;1951906;73;21620;-75
2021/05/01 11:07:13;;;;;;;20.80;10.82;;;11.50;99.90;;;;;;1951761;73;21539;-76
2021/05/01 11:09:41;;;;;;;18.87;10.53;;;11.10;99.90;;;;;;1951993;73;21086;-75
2021/05/01 11:12:07;;;;;;;23.85;10.98;;;11.10;99.90;;;;;;1951802;73;21133;-76
2021/05/01 11:14:33;;;;;;;17.82;11.08;;;11.20;99.90;;;;;;1951970;73;21035;-76
2021/05/01 11:16:59;;;;;;;22.37;11.30;;;11.50;99.90;;;;;;1951759;73;21071;-77
2021/05/01 11:19:25;;;;;;;18.65;10.68;;;11.50;99.90;;;;;;1951869;73;21067;-77
2021/05/01 11:21:52;;;;;;;25.02;11.30;;;11.30;99.90;;;;;;1951908;73;21137;-76
2021/05/01 11:24:18;;;;;;;18.15;10.80;;;11.20;99.90;;;;;;1951872;73;21067;-76
2021/05/01 11:26:44;;;;;;;20.02;10.78;;;11.50;99.90;;;;;;1951807;73;21134;-77
2021/05/01 11:29:10;;;;;;;19.57;11.10;;;11.70;99.90;;;;;;1951804;73;21140;-77
2021/05/01 11:31:36;;;;;;;19.65;10.23;;;11.60;99.90;;;;;;1951682;73;21620;-77
2021/05/01 11:34:02;;;;;;;22.37;9.90;;;11.80;99.90;;;;;;1951652;73;21495;-77
2021/05/01 11:36:28;;;;;;;20.82;10.80;;;11.60;99.90;;;;;;1951852;73;21494;-77
2021/05/01 11:38:55;;;;;;;19.87;11.08;;;11.80;99.90;;;;;;1951775;73;21627;-77
2021/05/01 11:41:24;;;;;;;17.60;10.15;;;11.70;99.90;;;;;;1951778;73;21530;-77
2021/05/01 11:43:50;;;;;;;21.12;9.98;;;11.50;99.90;;;;;;1951719;73;21095;-77
2021/05/01 11:46:18;;;;;;;17.77;10.25;;;11.50;99.90;;;;;;1951758;73;21091;-76
2021/05/01 11:48:44;;;;;;;16.10;10.25;;;11.70;99.90;;;;;;1951718;73;21571;-77
2021/05/01 11:51:10;;;;;;;21.77;10.25;;;11.90;99.90;;;;;;1951630;73;21532;-76
2021/05/01 11:53:39;;;;;;;20.97;10.38;;;12.00;99.90;;;;;;1951981;73;21470;-77
2021/05/01 11:56:07;;;;;;;19.42;11.15;;;12.30;99.90;;;;;;1951910;72;21079;-78
2021/05/01 11:58:33;;;;;;;21.05;11.30;;;12.20;99.90;;;;;;1951671;73;21512;-77
2021/05/01 12:00:59;;;;;;;21.17;10.40;;;12.00;99.90;;;;;;1951875;73;21474;-77
2021/05/01 12:03:25;;;;;;;18.77;10.80;;;11.90;99.90;;;;;;1956350;72;21548;-78
2021/05/01 12:05:51;;;;;;;26.95;11.45;;;11.90;99.90;;;;;;1954509;73;21539;-78
2021/05/01 12:08:20;;;;;;;21.15;10.25;;;12.00;99.90;;;;;;1951737;73;21568;-78
2021/05/01 12:10:45;;;;;;;22.15;9.73;;;12.20;99.90;;;;;;1943996;73;21153;-78
2021/05/01 12:13:13;;;;;;;19.77;10.18;;;12.70;99.90;;;;;;1945968;73;21087;-78
2021/05/01 12:15:39;;;;;;;23.87;10.90;;;13.00;99.90;;;;;;1951745;73;21530;-78
2021/05/01 12:18:05;;;;;;;23.92;10.72;;;12.80;99.90;;;;;;1951707;73;21564;-76
2021/05/01 12:20:31;;;;;;;19.35;10.90;;;12.10;99.90;;;;;;1951885;73;21433;-76
2021/05/01 12:22:57;;;;;;;22.20;10.32;;;12.20;99.90;;;;;;1951828;73;21026;-78
2021/05/01 12:25:25;;;;;;;19.95;10.32;;;11.90;99.90;;;;;;1951780;73;21070;-77
2021/05/01 12:27:51;;;;;;;18.60;10.15;;;12.20;99.90;;;;;;1951781;72;21609;-77
2021/05/01 12:30:17;;;;;;;21.68;10.88;;;12.40;99.90;;;;;;1951920;73;21126;-77
2021/05/01 12:32:44;;;;;;;17.92;10.58;;;12.30;99.90;;;;;;1951932;73;21066;-78
2021/05/01 12:35:10;;;;;;;17.70;9.55;;;12.20;99.90;;;;;;1951813;73;21039;-77